createdAt,value
2023-04-05T00:04:21.030Z,22.38
2023-04-05T00:11:22.967Z,24.58
2023-04-05T00:18:25.297Z,27.38
2023-04-05T00:25:26.882Z,26.75
2023-04-05T00:32:28.459Z,34.53
2023-04-05T00:39:30.265Z,35.15
2023-04-05T00:46:34.726Z,39.28
2023-04-05T00:53:36.287Z,38.55
2023-04-05T01:00:38.860Z,38.78
2023-04-05T01:07:58.714Z,41.25
2023-04-05T01:15:00.665Z,47.25
2023-04-05T01:22:17.366Z,64.55
2023-04-05T01:29:37.765Z,68.72
2023-04-05T01:36:54.649Z,60.88
2023-04-05T01:43:56.598Z,60.20
2023-04-05T01:50:58.127Z,56.22
2023-04-05T01:57:59.732Z,56.47
2023-04-05T02:05:01.952Z,54.35
2023-04-05T02:12:03.636Z,56.05
2023-04-05T02:19:05.894Z,50.80
2023-04-05T02:26:07.475Z,54.08
2023-04-05T02:33:10.392Z,56.53
2023-04-05T02:40:13.482Z,57.15
2023-04-05T02:47:21.189Z,67.22
2023-04-05T02:54:27.722Z,73.38
2023-04-05T03:01:36.285Z,74.57
2023-04-05T03:08:46.475Z,71.65
2023-04-05T03:15:54.044Z,71.22
2023-04-05T03:22:56.322Z,70.70
2023-04-05T03:30:03.529Z,73.40
2023-04-05T03:37:08.311Z,75.43
2023-04-05T03:44:24.518Z,77.10
2023-04-05T03:51:27.059Z,94.70
2023-04-05T03:58:28.649Z,80.88
2023-04-05T04:05:38.946Z,79.55
2023-04-05T04:12:41.980Z,89.75
2023-04-05T04:19:44.580Z,57.08
2023-04-05T04:26:58.283Z,66.70
2023-04-05T04:34:21.195Z,73.55
2023-04-05T04:41:46.953Z,73.80
2023-04-05T04:49:07.248Z,71.10
2023-04-05T04:56:09.629Z,79.32
2023-04-05T05:03:11.424Z,75.00
2023-04-05T05:10:16.034Z,70.80
2023-04-05T05:17:17.596Z,75.63
2023-04-05T05:24:19.515Z,76.05
2023-04-05T05:31:21.260Z,76.25
2023-04-05T05:38:23.515Z,73.38
2023-04-05T05:45:25.191Z,84.90
2023-04-05T05:52:26.830Z,102.80
2023-04-05T05:59:28.454Z,60.47
2023-04-05T06:06:30.609Z,57.85
2023-04-05T06:13:32.144Z,53.58
2023-04-05T06:20:33.757Z,50.85
2023-04-05T06:27:35.359Z,50.92
2023-04-05T06:34:36.951Z,49.10
2023-04-05T06:41:38.501Z,42.55
2023-04-05T06:48:40.341Z,39.30
2023-04-05T06:55:42.625Z,38.63
2023-04-05T07:02:44.269Z,32.72
2023-04-05T07:09:46.021Z,36.20
2023-04-05T07:16:48.643Z,30.92
2023-04-05T07:23:53.630Z,28.45
2023-04-05T07:30:55.244Z,30.88
2023-04-05T07:37:56.962Z,22.30
2023-04-05T07:44:58.618Z,9.70
2023-04-05T07:52:00.374Z,5.50
2023-04-05T07:59:01.964Z,5.05
2023-04-05T08:06:13.335Z,5.70
2023-04-05T08:13:14.965Z,4.82
2023-04-05T08:20:16.608Z,5.20
2023-04-05T08:27:18.686Z,4.18
2023-04-05T08:34:20.360Z,8.02
2023-04-05T08:41:23.424Z,3.70
2023-04-05T08:48:25.740Z,3.17
2023-04-05T08:55:27.286Z,3.10
2023-04-05T09:02:28.904Z,3.50
2023-04-05T09:09:32.519Z,3.08
2023-04-05T09:16:37.146Z,3.20
2023-04-05T09:23:38.856Z,2.67
2023-04-05T09:30:45.387Z,3.33
2023-04-05T09:37:57.394Z,3.03
2023-04-05T09:45:02.200Z,2.60
2023-04-05T09:52:23.954Z,2.53
2023-04-05T09:59:25.881Z,2.95
2023-04-05T10:06:38.703Z,2.85
2023-04-05T10:13:40.563Z,3.88
2023-04-05T10:20:42.629Z,3.17
2023-04-05T10:27:48.524Z,3.65
2023-04-05T10:34:56.492Z,2.50
2023-04-05T10:42:02.979Z,2.90
2023-04-05T10:49:28.006Z,2.90
2023-04-05T10:56:29.615Z,3.15
2023-04-05T11:03:50.922Z,3.38
2023-04-05T11:10:52.569Z,2.97
2023-04-05T11:18:09.387Z,6.20
2023-04-05T11:25:11.050Z,8.02
2023-04-05T11:32:13.489Z,8.00
2023-04-05T11:39:18.044Z,5.78
2023-04-05T11:46:19.726Z,4.35
2023-04-05T11:53:21.363Z,4.75
2023-04-05T12:00:22.991Z,6.50
2023-04-05T12:07:36.679Z,2.70
2023-04-05T12:14:38.857Z,3.00
2023-04-05T12:21:40.401Z,2.78
2023-04-05T12:28:57.822Z,2.30
2023-04-05T12:36:04.469Z,2.90
2023-04-05T12:43:07.231Z,3.50
2023-04-05T12:50:16.014Z,2.95
2023-04-05T12:57:17.564Z,2.42
2023-04-05T13:04:19.251Z,3.35
2023-04-05T13:11:20.824Z,2.80
2023-04-05T13:18:22.430Z,3.33
2023-04-05T13:25:24.042Z,2.60
2023-04-05T13:32:25.646Z,2.83
2023-04-05T13:39:27.160Z,2.25
2023-04-05T13:46:28.784Z,2.60
2023-04-05T13:53:30.410Z,2.72
2023-04-05T14:00:32.055Z,2.63
2023-04-05T14:07:33.612Z,3.05
2023-04-05T14:14:35.161Z,2.55
2023-04-05T14:21:37.226Z,2.80
2023-04-05T14:28:38.848Z,2.80
2023-04-05T14:35:40.647Z,2.95
2023-04-05T14:42:49.400Z,2.90
2023-04-05T14:49:51.923Z,2.73
2023-04-05T14:56:53.521Z,2.75
2023-04-05T15:03:55.200Z,2.17
2023-04-05T15:10:56.798Z,2.85
2023-04-05T15:17:58.434Z,3.20
2023-04-05T15:25:00.191Z,2.30
2023-04-05T15:32:02.770Z,3.35
2023-04-05T15:39:05.189Z,3.13
2023-04-05T15:46:07.017Z,3.33
2023-04-05T15:53:08.658Z,4.30
2023-04-05T16:00:11.001Z,3.83
2023-04-05T16:07:12.788Z,4.25
2023-04-05T16:14:14.617Z,2.80
2023-04-05T16:21:16.856Z,3.20
2023-04-05T16:28:18.405Z,3.35
2023-04-05T16:35:20.467Z,5.22
2023-04-05T16:42:22.035Z,3.28
2023-04-05T16:49:23.658Z,3.40
2023-04-05T16:56:25.270Z,3.38
2023-04-05T17:03:27.313Z,4.15
2023-04-05T17:10:29.108Z,3.63
2023-04-05T17:17:31.075Z,3.78
2023-04-05T17:24:36.257Z,3.78
2023-04-05T17:31:38.106Z,4.10
2023-04-05T17:38:39.765Z,4.70
2023-04-05T17:45:41.385Z,4.60
2023-04-05T17:52:43.048Z,4.30
2023-04-05T17:59:44.771Z,4.70
2023-04-05T18:06:47.206Z,5.05
2023-04-05T18:13:48.826Z,4.57
2023-04-05T18:20:53.936Z,5.20
2023-04-05T18:27:55.935Z,6.25
2023-04-05T18:34:57.677Z,4.68
2023-04-05T18:41:59.478Z,4.32
2023-04-05T18:49:01.120Z,4.63
2023-04-05T18:56:02.709Z,4.70
2023-04-05T19:03:04.369Z,5.85
2023-04-05T19:10:06.765Z,4.28
2023-04-05T19:17:09.353Z,4.70
2023-04-05T19:24:13.944Z,4.60
2023-04-05T19:31:16.292Z,5.43
2023-04-05T19:38:18.166Z,3.90
2023-04-05T19:45:26.832Z,4.82
2023-04-05T19:52:34.539Z,4.25
2023-04-05T19:59:36.184Z,4.22
2023-04-05T20:06:37.926Z,3.83
2023-04-05T20:13:50.543Z,4.30
2023-04-05T20:20:53.692Z,4.35
2023-04-05T20:27:55.413Z,5.22
2023-04-05T20:34:56.972Z,5.10
2023-04-05T20:41:58.676Z,5.47
2023-04-05T20:49:00.247Z,3.83
2023-04-05T20:56:05.307Z,4.57
2023-04-05T21:03:07.544Z,4.80
2023-04-05T21:10:09.688Z,4.80
2023-04-05T21:17:11.396Z,4.50
2023-04-05T21:24:12.989Z,5.03
2023-04-05T21:31:14.530Z,4.80
2023-04-05T21:38:16.500Z,4.97
2023-04-05T21:45:18.078Z,5.63
2023-04-05T21:52:19.673Z,5.60
2023-04-05T21:59:21.415Z,5.90
2023-04-05T22:06:23.060Z,5.97
2023-04-05T22:13:24.612Z,5.30
2023-04-05T22:20:26.428Z,5.90
2023-04-05T22:27:29.314Z,5.72
2023-04-05T22:34:30.856Z,5.15
2023-04-05T22:41:32.509Z,6.10
2023-04-05T22:48:34.159Z,5.72
2023-04-05T22:55:37.948Z,5.00
2023-04-05T23:02:39.597Z,5.82
2023-04-05T23:09:41.210Z,6.43
2023-04-05T23:16:42.777Z,12.23
2023-04-05T23:23:44.424Z,11.18
2023-04-05T23:30:46.092Z,9.35
2023-04-05T23:37:47.738Z,9.43
2023-04-05T23:44:49.283Z,8.18
2023-04-05T23:51:51.212Z,11.05
2023-04-05T23:58:52.778Z,11.30
